sensor_id;sensor_type;location;lat;lon;timestamp;pressure;altitude;pressure_sealevel;temperature;humidity
5872;BME280;2962;51.312;7.378;2022-11-20T00:00:52;96971.34;;;-0.85;100.00
5872;BME280;2962;51.312;7.378;2022-11-20T00:03:18;96954.91;;;-1.01;100.00
5872;BME280;2962;51.312;7.378;2022-11-20T00:05:43;96955.69;;;-1.01;100.00
5872;BME280;2962;51.312;7.378;2022-11-20T00:08:09;96952.03;;;-1.05;100.00
5872;BME280;2962;51.312;7.378;2022-11-20T00:10:38;96967.72;;;-0.89;100.00
5872;BME280;2962;51.312;7.378;2022-11-20T00:13:04;96963.78;;;-0.92;100.00
5872;BME280;2962;51.312;7.378;2022-11-20T00:15:29;96957.19;;;-0.86;100.00
5872;BME280;2962;51.312;7.378;2022-11-20T00:17:54;96961.94;;;-0.83;100.00
5872;BME280;2962;51.312;7.378;2022-11-20T00:20:20;96967.59;;;-0.84;100.00
5872;BME280;2962;51.312;7.378;2022-11-20T00:22:45;96957.72;;;-0.75;100.00
5872;BME280;2962;51.312;7.378;2022-11-20T00:25:10;96951.84;;;-0.86;100.00
5872;BME280;2962;51.312;7.378;2022-11-20T00:27:37;96956.63;;;-0.74;100.00
5872;BME280;2962;51.312;7.378;2022-11-20T00:30:03;96957.13;;;-0.72;100.00
5872;BME280;2962;51.312;7.378;2022-11-20T00:32:29;96951.94;;;-0.68;100.00
5872;BME280;2962;51.312;7.378;2022-11-20T00:34:54;96951.16;;;-0.69;100.00
5872;BME280;2962;51.312;7.378;2022-11-20T00:37:19;96948.41;;;-0.78;100.00
5872;BME280;2962;51.312;7.378;2022-11-20T00:39:45;96952.31;;;-0.61;100.00
5872;BME280;2962;51.312;7.378;2022-11-20T00:42:10;96942.19;;;-0.73;100.00
5872;BME280;2962;51.312;7.378;2022-11-20T00:44:36;96964.00;;;-0.80;100.00
5872;BME280;2962;51.312;7.378;2022-11-20T00:47:01;96950.63;;;-0.80;100.00
5872;BME280;2962;51.312;7.378;2022-11-20T00:49:26;96945.88;;;-0.83;100.00
5872;BME280;2962;51.312;7.378;2022-11-20T00:51:51;96953.59;;;-0.81;100.00
5872;BME280;2962;51.312;7.378;2022-11-20T00:54:17;96945.00;;;-0.69;100.00
5872;BME280;2962;51.312;7.378;2022-11-20T00:56:42;96959.03;;;-0.64;100.00
5872;BME280;2962;51.312;7.378;2022-11-20T00:59:08;96966.06;;;-0.45;100.00
5872;BME280;2962;51.312;7.378;2022-11-20T01:01:35;96965.50;;;-0.65;100.00
5872;BME280;2962;51.312;7.378;2022-11-20T01:04:01;96972.47;;;-0.55;100.00
5872;BME280;2962;51.312;7.378;2022-11-20T01:06:31;96960.53;;;-0.49;100.00
5872;BME280;2962;51.312;7.378;2022-11-20T01:09:00;96964.06;;;-0.62;100.00
5872;BME280;2962;51.312;7.378;2022-11-20T01:11:28;96956.69;;;-0.26;100.00
5872;BME280;2962;51.312;7.378;2022-11-20T01:13:55;96959.72;;;-0.10;100.00
5872;BME280;2962;51.312;7.378;2022-11-20T01:16:27;96961.78;;;-0.07;100.00
5872;BME280;2962;51.312;7.378;2022-11-20T01:18:55;96957.25;;;0.03;100.00
5872;BME280;2962;51.312;7.378;2022-11-20T01:21:24;96953.53;;;-0.28;100.00
5872;BME280;2962;51.312;7.378;2022-11-20T01:23:50;96955.34;;;-0.06;100.00
5872;BME280;2962;51.312;7.378;2022-11-20T01:26:18;96949.66;;;-0.04;100.00
5872;BME280;2962;51.312;7.378;2022-11-20T01:28:44;96940.66;;;-0.17;100.00
5872;BME280;2962;51.312;7.378;2022-11-20T01:31:29;96952.66;;;-0.06;100.00
5872;BME280;2962;51.312;7.378;2022-11-20T01:33:56;96941.59;;;-0.13;100.00
5872;BME280;2962;51.312;7.378;2022-11-20T01:36:24;96942.72;;;-0.14;100.00
5872;BME280;2962;51.312;7.378;2022-11-20T01:38:58;96929.78;;;-0.20;100.00
5872;BME280;2962;51.312;7.378;2022-11-20T01:41:25;96945.38;;;-0.14;100.00
5872;BME280;2962;51.312;7.378;2022-11-20T01:44:11;96926.00;;;-0.19;100.00
5872;BME280;2962;51.312;7.378;2022-11-20T01:46:52;96933.81;;;0.17;100.00
5872;BME280;2962;51.312;7.378;2022-11-20T01:49:36;96928.28;;;0.31;100.00
5872;BME280;2962;51.312;7.378;2022-11-20T01:52:24;96924.47;;;0.06;100.00
5872;BME280;2962;51.312;7.378;2022-11-20T01:55:05;96920.97;;;-0.12;100.00
5872;BME280;2962;51.312;7.378;2022-11-20T01:57:33;96918.16;;;-0.07;100.00
5872;BME280;2962;51.312;7.378;2022-11-20T02:00:03;96906.34;;;0.03;100.00
5872;BME280;2962;51.312;7.378;2022-11-20T02:02:31;96914.88;;;0.13;100.00
5872;BME280;2962;51.312;7.378;2022-11-20T02:05:00;96917.72;;;0.08;100.00
5872;BME280;2962;51.312;7.378;2022-11-20T02:07:28;96916.28;;;0.02;100.00
5872;BME280;2962;51.312;7.378;2022-11-20T02:09:53;96922.13;;;0.13;100.00
5872;BME280;2962;51.312;7.378;2022-11-20T02:12:19;96917.06;;;0.03;100.00
5872;BME280;2962;51.312;7.378;2022-11-20T02:15:04;96927.03;;;0.37;100.00
5872;BME280;2962;51.312;7.378;2022-11-20T02:17:29;96934.94;;;0.51;100.00
5872;BME280;2962;51.312;7.378;2022-11-20T02:19:55;96916.31;;;0.37;100.00
5872;BME280;2962;51.312;7.378;2022-11-20T02:22:44;96928.47;;;0.43;100.00
5872;BME280;2962;51.312;7.378;2022-11-20T02:25:13;96916.00;;;0.21;100.00
5872;BME280;2962;51.312;7.378;2022-11-20T02:27:39;96917.41;;;0.10;100.00
5872;BME280;2962;51.312;7.378;2022-11-20T02:30:06;96924.81;;;0.04;100.00
5872;BME280;2962;51.312;7.378;2022-11-20T02:32:38;96917.56;;;0.22;100.00
5872;BME280;2962;51.312;7.378;2022-11-20T02:37:35;96914.59;;;0.23;100.00
5872;BME280;2962;51.312;7.378;2022-11-20T02:40:01;96912.06;;;0.36;100.00
5872;BME280;2962;51.312;7.378;2022-11-20T02:42:26;96919.00;;;0.45;100.00
5872;BME280;2962;51.312;7.378;2022-11-20T02:44:52;96913.47;;;0.24;100.00
5872;BME280;2962;51.312;7.378;2022-11-20T02:47:17;96918.34;;;0.14;100.00
5872;BME280;2962;51.312;7.378;2022-11-20T02:49:42;96900.09;;;0.24;100.00
5872;BME280;2962;51.312;7.378;2022-11-20T02:52:07;96908.75;;;0.21;100.00
5872;BME280;2962;51.312;7.378;2022-11-20T02:54:33;96899.28;;;0.15;100.00
5872;BME280;2962;51.312;7.378;2022-11-20T02:56:58;96906.38;;;0.37;100.00
5872;BME280;2962;51.312;7.378;2022-11-20T02:59:23;96895.34;;;0.30;100.00
5872;BME280;2962;51.312;7.378;2022-11-20T03:01:49;96895.19;;;0.18;100.00
5872;BME280;2962;51.312;7.378;2022-11-20T03:04:14;96895.03;;;0.14;100.00
5872;BME280;2962;51.312;7.378;2022-11-20T03:06:39;96899.28;;;0.15;100.00
5872;BME280;2962;51.312;7.378;2022-11-20T03:09:04;96888.88;;;0.05;100.00
5872;BME280;2962;51.312;7.378;2022-11-20T03:11:30;96897.41;;;0.33;100.00
5872;BME280;2962;51.312;7.378;2022-11-20T03:13:55;96886.53;;;0.12;100.00
5872;BME280;2962;51.312;7.378;2022-11-20T03:16:22;96893.63;;;0.26;100.00
5872;BME280;2962;51.312;7.378;2022-11-20T03:18:48;96886.22;;;0.14;100.00
5872;BME280;2962;51.312;7.378;2022-11-20T03:21:14;96885.75;;;0.20;100.00
5872;BME280;2962;51.312;7.378;2022-11-20T03:23:40;96885.25;;;0.10;100.00
5872;BME280;2962;51.312;7.378;2022-11-20T03:28:37;96883.53;;;0.22;100.00
5872;BME280;2962;51.312;7.378;2022-11-20T03:31:11;96884.97;;;0.20;100.00
5872;BME280;2962;51.312;7.378;2022-11-20T03:33:38;96888.09;;;0.22;100.00
5872;BME280;2962;51.312;7.378;2022-11-20T03:36:05;96883.84;;;0.12;100.00
5872;BME280;2962;51.312;7.378;2022-11-20T03:38:31;96878.66;;;0.24;100.00
5872;BME280;2962;51.312;7.378;2022-11-20T03:41:01;96876.13;;;0.19;100.00
5872;BME280;2962;51.312;7.378;2022-11-20T03:43:27;96879.28;;;0.56;100.00
5872;BME280;2962;51.312;7.378;2022-11-20T03:45:53;96879.44;;;0.51;100.00
5872;BME280;2962;51.312;7.378;2022-11-20T03:48:18;96878.50;;;0.30;100.00
5872;BME280;2962;51.312;7.378;2022-11-20T03:50:43;96873.47;;;0.28;100.00
5872;BME280;2962;51.312;7.378;2022-11-20T03:53:09;96875.34;;;0.28;100.00
5872;BME280;2962;51.312;7.378;2022-11-20T03:55:34;96867.59;;;0.26;100.00
5872;BME280;2962;51.312;7.378;2022-11-20T03:57:59;96863.84;;;0.27;100.00
5872;BME280;2962;51.312;7.378;2022-11-20T04:00:24;96864.78;;;0.48;100.00
5872;BME280;2962;51.312;7.378;2022-11-20T04:02:50;96858.63;;;0.39;100.00
5872;BME280;2962;51.312;7.378;2022-11-20T04:05:15;96853.28;;;0.22;100.00
5872;BME280;2962;51.312;7.378;2022-11-20T04:07:40;96863.53;;;0.20;100.00
5872;BME280;2962;51.312;7.378;2022-11-20T04:10:06;96852.94;;;0.06;100.00
5872;BME280;2962;51.312;7.378;2022-11-20T04:12:32;96863.03;;;0.18;100.00
5872;BME280;2962;51.312;7.378;2022-11-20T04:14:58;96862.09;;;0.14;100.00
5872;BME280;2962;51.312;7.378;2022-11-20T04:17:23;96854.22;;;0.09;100.00
5872;BME280;2962;51.312;7.378;2022-11-20T04:19:49;96862.59;;;0.16;100.00
5872;BME280;2962;51.312;7.378;2022-11-20T04:22:14;96860.19;;;0.23;100.00
5872;BME280;2962;51.312;7.378;2022-11-20T04:24:39;96854.69;;;0.45;100.00
5872;BME280;2962;51.312;7.378;2022-11-20T04:27:04;96865.41;;;0.63;100.00
5872;BME280;2962;51.312;7.378;2022-11-20T04:29:30;96869.63;;;0.72;100.00
5872;BME280;2962;51.312;7.378;2022-11-20T04:31:55;96873.41;;;0.71;100.00
5872;BME280;2962;51.312;7.378;2022-11-20T04:34:20;96869.63;;;0.64;100.00
5872;BME280;2962;51.312;7.378;2022-11-20T04:36:45;96836.72;;;0.37;100.00
5872;BME280;2962;51.312;7.378;2022-11-20T04:39:12;96854.22;;;0.52;100.00
5872;BME280;2962;51.312;7.378;2022-11-20T04:41:39;96866.63;;;0.74;100.00
5872;BME280;2962;51.312;7.378;2022-11-20T04:44:05;96871.69;;;0.67;100.00
5872;BME280;2962;51.312;7.378;2022-11-20T04:46:32;96861.75;;;0.67;100.00
5872;BME280;2962;51.312;7.378;2022-11-20T04:48:58;96865.84;;;0.65;100.00
5872;BME280;2962;51.312;7.378;2022-11-20T04:51:24;96864.78;;;0.31;100.00
5872;BME280;2962;51.312;7.378;2022-11-20T04:53:49;96858.63;;;0.22;100.00
5872;BME280;2962;51.312;7.378;2022-11-20T04:56:15;96867.94;;;0.33;100.00
5872;BME280;2962;51.312;7.378;2022-11-20T04:58:41;96841.16;;;0.24;100.00
5872;BME280;2962;51.312;7.378;2022-11-20T05:01:09;96857.03;;;0.38;100.00
5872;BME280;2962;51.312;7.378;2022-11-20T05:03:35;96855.03;;;0.35;100.00
5872;BME280;2962;51.312;7.378;2022-11-20T05:06:04;96858.94;;;0.38;100.00
5872;BME280;2962;51.312;7.378;2022-11-20T05:08:30;96858.31;;;0.32;100.00
5872;BME280;2962;51.312;7.378;2022-11-20T05:11:10;96869.50;;;0.34;100.00
5872;BME280;2962;51.312;7.378;2022-11-20T05:13:37;96860.69;;;0.25;100.00
5872;BME280;2962;51.312;7.378;2022-11-20T05:16:07;96875.97;;;0.33;100.00
5872;BME280;2962;51.312;7.378;2022-11-20T05:18:34;96873.00;;;0.35;100.00
5872;BME280;2962;51.312;7.378;2022-11-20T05:21:00;96875.81;;;0.38;100.00
5872;BME280;2962;51.312;7.378;2022-11-20T05:23:26;96867.94;;;0.51;100.00
5872;BME280;2962;51.312;7.378;2022-11-20T05:25:52;96869.81;;;0.59;100.00
5872;BME280;2962;51.312;7.378;2022-11-20T05:28:18;96868.72;;;0.51;100.00
5872;BME280;2962;51.312;7.378;2022-11-20T05:30:43;96866.34;;;0.49;100.00
5872;BME280;2962;51.312;7.378;2022-11-20T05:33:08;96861.94;;;0.36;100.00
5872;BME280;2962;51.312;7.378;2022-11-20T05:35:34;96865.56;;;0.32;100.00
5872;BME280;2962;51.312;7.378;2022-11-20T05:37:59;96866.81;;;0.34;100.00
5872;BME280;2962;51.312;7.378;2022-11-20T05:40:24;96869.97;;;0.19;100.00
5872;BME280;2962;51.312;7.378;2022-11-20T05:42:49;96881.47;;;0.11;100.00
5872;BME280;2962;51.312;7.378;2022-11-20T05:45:15;96864.44;;;-0.11;100.00
5872;BME280;2962;51.312;7.378;2022-11-20T05:47:40;96867.63;;;0.09;100.00
5872;BME280;2962;51.312;7.378;2022-11-20T05:50:05;96874.06;;;0.08;100.00
5872;BME280;2962;51.312;7.378;2022-11-20T05:52:31;96879.44;;;0.16;100.00
5872;BME280;2962;51.312;7.378;2022-11-20T05:54:56;96867.28;;;0.10;100.00
5872;BME280;2962;51.312;7.378;2022-11-20T05:57:22;96867.78;;;0.12;100.00
5872;BME280;2962;51.312;7.378;2022-11-20T05:59:47;96848.50;;;-0.16;100.00
5872;BME280;2962;51.312;7.378;2022-11-20T06:02:12;96873.72;;;-0.17;100.00
5872;BME280;2962;51.312;7.378;2022-11-20T06:04:38;96875.94;;;-0.19;100.00
5872;BME280;2962;51.312;7.378;2022-11-20T06:07:05;96861.28;;;-0.21;100.00
5872;BME280;2962;51.312;7.378;2022-11-20T06:09:31;96870.41;;;-0.22;100.00
5872;BME280;2962;51.312;7.378;2022-11-20T06:11:56;96861.72;;;-0.19;100.00
5872;BME280;2962;51.312;7.378;2022-11-20T06:14:21;96864.13;;;-0.01;100.00
5872;BME280;2962;51.312;7.378;2022-11-20T06:16:47;96862.06;;;-0.12;100.00
5872;BME280;2962;51.312;7.378;2022-11-20T06:19:12;96861.44;;;-0.09;100.00
5872;BME280;2962;51.312;7.378;2022-11-20T06:21:37;96858.59;;;-0.13;100.00
5872;BME280;2962;51.312;7.378;2022-11-20T06:24:03;96856.38;;;-0.28;100.00
5872;BME280;2962;51.312;7.378;2022-11-20T06:26:28;96865.69;;;-0.17;100.00
5872;BME280;2962;51.312;7.378;2022-11-20T06:28:55;96865.69;;;-0.26;100.00
5872;BME280;2962;51.312;7.378;2022-11-20T06:31:22;96857.16;;;-0.36;100.00
5872;BME280;2962;51.312;7.378;2022-11-20T06:33:48;96861.25;;;-0.30;100.00
5872;BME280;2962;51.312;7.378;2022-11-20T06:36:16;96862.03;;;-0.38;100.00
5872;BME280;2962;51.312;7.378;2022-11-20T06:38:44;96860.59;;;-0.44;100.00
5872;BME280;2962;51.312;7.378;2022-11-20T06:41:18;96863.00;;;-0.26;100.00
5872;BME280;2962;51.312;7.378;2022-11-20T06:43:44;96865.03;;;-0.31;100.00
5872;BME280;2962;51.312;7.378;2022-11-20T06:46:11;96858.38;;;-0.42;100.00
5872;BME280;2962;51.312;7.378;2022-11-20T06:48:36;96872.59;;;-0.33;100.00
5872;BME280;2962;51.312;7.378;2022-11-20T06:51:06;96871.19;;;-0.22;100.00
5872;BME280;2962;51.312;7.378;2022-11-20T06:53:32;96872.47;;;-0.11;100.00
5872;BME280;2962;51.312;7.378;2022-11-20T06:55:57;96880.63;;;-0.25;100.00
5872;BME280;2962;51.312;7.378;2022-11-20T06:58:23;96873.53;;;-0.38;100.00
5872;BME280;2962;51.312;7.378;2022-11-20T07:00:50;96869.09;;;-0.42;100.00
5872;BME280;2962;51.312;7.378;2022-11-20T07:03:16;96878.09;;;-0.38;100.00
5872;BME280;2962;51.312;7.378;2022-11-20T07:05:41;96882.88;;;-0.09;100.00
5872;BME280;2962;51.312;7.378;2022-11-20T07:08:07;96873.88;;;-0.05;100.00
5872;BME280;2962;51.312;7.378;2022-11-20T07:10:33;96876.38;;;-0.26;100.00
5872;BME280;2962;51.312;7.378;2022-11-20T07:12:58;96874.16;;;-0.32;100.00
5872;BME280;2962;51.312;7.378;2022-11-20T07:15:24;96881.06;;;-0.40;100.00
5872;BME280;2962;51.312;7.378;2022-11-20T07:17:50;96880.63;;;-0.33;100.00
5872;BME280;2962;51.312;7.378;2022-11-20T07:20:16;96885.03;;;-0.29;100.00
5872;BME280;2962;51.312;7.378;2022-11-20T07:22:41;96902.56;;;0.04;100.00
5872;BME280;2962;51.312;7.378;2022-11-20T07:25:08;96888.72;;;-0.07;100.00
5872;BME280;2962;51.312;7.378;2022-11-20T07:27:33;96889.03;;;0.09;100.00
5872;BME280;2962;51.312;7.378;2022-11-20T07:29:59;96906.06;;;0.21;100.00
5872;BME280;2962;51.312;7.378;2022-11-20T07:32:25;96905.25;;;0.04;100.00
5872;BME280;2962;51.312;7.378;2022-11-20T07:34:50;96891.38;;;-0.07;100.00
5872;BME280;2962;51.312;7.378;2022-11-20T07:37:16;96903.06;;;0.06;100.00
5872;BME280;2962;51.312;7.378;2022-11-20T07:39:42;96894.72;;;0.24;100.00
5872;BME280;2962;51.312;7.378;2022-11-20T07:42:07;96891.09;;;0.38;100.00
5872;BME280;2962;51.312;7.378;2022-11-20T07:44:33;96899.28;;;0.33;100.00
5872;BME280;2962;51.312;7.378;2022-11-20T07:46:58;96902.94;;;0.28;100.00
5872;BME280;2962;51.312;7.378;2022-11-20T07:49:23;96904.19;;;0.39;100.00
5872;BME280;2962;51.312;7.378;2022-11-20T07:51:52;96890.78;;;0.48;100.00
5872;BME280;2962;51.312;7.378;2022-11-20T07:54:21;96900.56;;;0.44;100.00
5872;BME280;2962;51.312;7.378;2022-11-20T07:56:47;96902.78;;;0.51;100.00
5872;BME280;2962;51.312;7.378;2022-11-20T07:59:13;96903.25;;;0.70;100.00
5872;BME280;2962;51.312;7.378;2022-11-20T08:01:39;96886.50;;;0.73;100.00
5872;BME280;2962;51.312;7.378;2022-11-20T08:04:04;96892.19;;;0.71;100.00
5872;BME280;2962;51.312;7.378;2022-11-20T08:06:30;96907.00;;;0.86;100.00
5872;BME280;2962;51.312;7.378;2022-11-20T08:08:55;96894.25;;;0.75;100.00
5872;BME280;2962;51.312;7.378;2022-11-20T08:11:20;96902.28;;;0.75;100.00
5872;BME280;2962;51.312;7.378;2022-11-20T08:14:04;96897.38;;;0.68;100.00
5872;BME280;2962;51.312;7.378;2022-11-20T08:16:43;96889.97;;;0.65;100.00
5872;BME280;2962;51.312;7.378;2022-11-20T08:19:08;96884.66;;;0.47;100.00
5872;BME280;2962;51.312;7.378;2022-11-20T08:21:34;96890.78;;;0.48;100.00
5872;BME280;2962;51.312;7.378;2022-11-20T08:23:59;96894.09;;;0.45;100.00
5872;BME280;2962;51.312;7.378;2022-11-20T08:26:25;96872.03;;;0.39;100.00
5872;BME280;2962;51.312;7.378;2022-11-20T08:28:54;96886.84;;;0.45;100.00
5872;BME280;2962;51.312;7.378;2022-11-20T08:31:20;96881.97;;;0.47;100.00
5872;BME280;2962;51.312;7.378;2022-11-20T08:33:46;96888.06;;;0.83;100.00
5872;BME280;2962;51.312;7.378;2022-11-20T08:36:11;96887.38;;;1.12;100.00
5872;BME280;2962;51.312;7.378;2022-11-20T08:38:36;96878.00;;;1.65;100.00
5872;BME280;2962;51.312;7.378;2022-11-20T08:41:04;96877.13;;;1.82;100.00
5872;BME280;2962;51.312;7.378;2022-11-20T08:43:48;96862.41;;;2.09;100.00
5872;BME280;2962;51.312;7.378;2022-11-20T08:46:14;96867.72;;;2.38;100.00
5872;BME280;2962;51.312;7.378;2022-11-20T08:48:39;96866.34;;;2.86;100.00
5872;BME280;2962;51.312;7.378;2022-11-20T08:51:05;96866.06;;;3.12;100.00
5872;BME280;2962;51.312;7.378;2022-11-20T08:53:30;96858.03;;;3.49;100.00
5872;BME280;2962;51.312;7.378;2022-11-20T08:55:59;96865.41;;;4.01;100.00
5872;BME280;2962;51.312;7.378;2022-11-20T08:58:25;96859.84;;;4.34;100.00
5872;BME280;2962;51.312;7.378;2022-11-20T09:00:54;96819.94;;;3.87;100.00
5872;BME280;2962;51.312;7.378;2022-11-20T09:03:19;96865.31;;;4.38;100.00
5872;BME280;2962;51.312;7.378;2022-11-20T09:05:44;96878.34;;;4.76;100.00
5872;BME280;2962;51.312;7.378;2022-11-20T09:08:10;96865.91;;;4.87;100.00
5872;BME280;2962;51.312;7.378;2022-11-20T09:10:35;96864.19;;;3.99;100.00
5872;BME280;2962;51.312;7.378;2022-11-20T09:13:02;96862.31;;;3.75;100.00
5872;BME280;2962;51.312;7.378;2022-11-20T09:15:27;96873.97;;;3.79;100.00
5872;BME280;2962;51.312;7.378;2022-11-20T09:18:00;96867.75;;;4.03;100.00
5872;BME280;2962;51.312;7.378;2022-11-20T09:20:28;96874.28;;;4.02;100.00
5872;BME280;2962;51.312;7.378;2022-11-20T09:22:54;96871.94;;;3.88;100.00
5872;BME280;2962;51.312;7.378;2022-11-20T09:25:20;96864.09;;;3.58;100.00
5872;BME280;2962;51.312;7.378;2022-11-20T09:27:45;96862.28;;;3.38;100.00
5872;BME280;2962;51.312;7.378;2022-11-20T09:30:13;96869.66;;;3.16;100.00
5872;BME280;2962;51.312;7.378;2022-11-20T09:32:39;96878.81;;;2.58;100.00
5872;BME280;2962;51.312;7.378;2022-11-20T09:35:05;96880.38;;;2.17;100.00
5872;BME280;2962;51.312;7.378;2022-11-20T09:37:30;96879.97;;;2.06;100.00
5872;BME280;2962;51.312;7.378;2022-11-20T09:39:55;96864.81;;;1.81;100.00
5872;BME280;2962;51.312;7.378;2022-11-20T09:50:27;96860.66;;;1.24;100.00
5872;BME280;2962;51.312;7.378;2022-11-20T09:55:37;96853.44;;;1.45;100.00
5872;BME280;2962;51.312;7.378;2022-11-20T09:58:06;96855.81;;;1.47;100.00
5872;BME280;2962;51.312;7.378;2022-11-20T10:00:35;96836.34;;;1.59;100.00
5872;BME280;2962;51.312;7.378;2022-11-20T10:03:05;96855.00;;;2.06;100.00
5872;BME280;2962;51.312;7.378;2022-11-20T10:05:44;96858.81;;;2.05;100.00
5872;BME280;2962;51.312;7.378;2022-11-20T10:08:29;96842.22;;;2.03;100.00
5872;BME280;2962;51.312;7.378;2022-11-20T10:11:51;96835.72;;;2.04;100.00
5872;BME280;2962;51.312;7.378;2022-11-20T10:14:18;96847.31;;;1.75;100.00
5872;BME280;2962;51.312;7.378;2022-11-20T10:17:13;96842.41;;;1.98;100.00
5872;BME280;2962;51.312;7.378;2022-11-20T10:28:11;96840.84;;;1.97;100.00
5872;BME280;2962;51.312;7.378;2022-11-20T10:30:41;96824.31;;;1.86;100.00
5872;BME280;2962;51.312;7.378;2022-11-20T10:33:19;96815.41;;;1.94;100.00
5872;BME280;2962;51.312;7.378;2022-11-20T10:36:00;96824.47;;;1.89;100.00
5872;BME280;2962;51.312;7.378;2022-11-20T10:38:37;96820.88;;;1.85;100.00
5872;BME280;2962;51.312;7.378;2022-11-20T10:41:05;96820.88;;;1.85;100.00
5872;BME280;2962;51.312;7.378;2022-11-20T10:44:37;96821.31;;;2.29;100.00
5872;BME280;2962;51.312;7.378;2022-11-20T10:46:44;96822.25;;;2.45;100.00
5872;BME280;2962;51.312;7.378;2022-11-20T10:49:14;96823.13;;;2.37;100.00
5872;BME280;2962;51.312;7.378;2022-11-20T10:52:09;96804.00;;;2.18;100.00
5872;BME280;2962;51.312;7.378;2022-11-20T10:57:20;96804.25;;;2.25;100.00
5872;BME280;2962;51.312;7.378;2022-11-20T11:05:06;96786.00;;;2.52;100.00
5872;BME280;2962;51.312;7.378;2022-11-20T11:07:38;96796.22;;;2.58;100.00
5872;BME280;2962;51.312;7.378;2022-11-20T11:10:18;96794.34;;;2.71;100.00
5872;BME280;2962;51.312;7.378;2022-11-20T11:12:45;96801.13;;;2.56;100.00
5872;BME280;2962;51.312;7.378;2022-11-20T11:15:15;96802.06;;;2.73;100.00
5872;BME280;2962;51.312;7.378;2022-11-20T11:17:49;96787.28;;;2.66;100.00
5872;BME280;2962;51.312;7.378;2022-11-20T11:20:20;96784.38;;;2.72;100.00
5872;BME280;2962;51.312;7.378;2022-11-20T11:22:57;96779.31;;;2.58;100.00
5872;BME280;2962;51.312;7.378;2022-11-20T11:25:30;96779.94;;;2.42;100.00
5872;BME280;2962;51.312;7.378;2022-11-20T11:28:01;96773.94;;;2.58;100.00
5872;BME280;2962;51.312;7.378;2022-11-20T11:30:28;96779.09;;;2.75;100.00
5872;BME280;2962;51.312;7.378;2022-11-20T11:33:10;96770.06;;;3.04;100.00
5872;BME280;2962;51.312;7.378;2022-11-20T11:35:47;96767.94;;;2.98;100.00
5872;BME280;2962;51.312;7.378;2022-11-20T11:38:16;96759.63;;;2.90;100.00
5872;BME280;2962;51.312;7.378;2022-11-20T11:40:44;96763.22;;;2.82;100.00
5872;BME280;2962;51.312;7.378;2022-11-20T11:43:24;96757.06;;;2.49;100.00
5872;BME280;2962;51.312;7.378;2022-11-20T11:46:24;96748.06;;;2.65;100.00
5872;BME280;2962;51.312;7.378;2022-11-20T11:49:00;96745.03;;;2.67;100.00
5872;BME280;2962;51.312;7.378;2022-11-20T11:51:33;96734.81;;;2.73;100.00
5872;BME280;2962;51.312;7.378;2022-11-20T11:54:00;96738.50;;;2.56;100.00
5872;BME280;2962;51.312;7.378;2022-11-20T11:56:28;96733.47;;;2.54;100.00
5872;BME280;2962;51.312;7.378;2022-11-20T11:58:56;96726.44;;;2.62;100.00
5872;BME280;2962;51.312;7.378;2022-11-20T12:01:32;96722.38;;;2.56;100.00
5872;BME280;2962;51.312;7.378;2022-11-20T12:04:00;96717.66;;;2.53;100.00
5872;BME280;2962;51.312;7.378;2022-11-20T12:06:29;96718.13;;;2.55;100.00
5872;BME280;2962;51.312;7.378;2022-11-20T12:09:00;96715.31;;;2.51;100.00
5872;BME280;2962;51.312;7.378;2022-11-20T12:12:02;96711.19;;;2.54;100.00
5872;BME280;2962;51.312;7.378;2022-11-20T12:14:34;96708.56;;;2.57;100.00
5872;BME280;2962;51.312;7.378;2022-11-20T12:17:01;96708.38;;;2.75;100.00
5872;BME280;2962;51.312;7.378;2022-11-20T12:19:29;96707.50;;;2.71;100.00
5872;BME280;2962;51.312;7.378;2022-11-20T12:22:23;96704.44;;;2.60;100.00
5872;BME280;2962;51.312;7.378;2022-11-20T12:27:59;96696.34;;;2.35;100.00
5872;BME280;2962;51.312;7.378;2022-11-20T12:30:26;96683.91;;;2.31;100.00
5872;BME280;2962;51.312;7.378;2022-11-20T12:33:38;96691.00;;;2.14;100.00
5872;BME280;2962;51.312;7.378;2022-11-20T12:36:23;96683.53;;;2.20;100.00
5872;BME280;2962;51.312;7.378;2022-11-20T12:55:14;96695.09;;;2.00;100.00
5872;BME280;2962;51.312;7.378;2022-11-20T12:57:58;96680.84;;;1.87;100.00
5872;BME280;2962;51.312;7.378;2022-11-20T13:00:26;96679.81;;;1.79;100.00
5872;BME280;2962;51.312;7.378;2022-11-20T13:03:16;96682.28;;;1.84;100.00
5872;BME280;2962;51.312;7.378;2022-11-20T13:06:17;96671.78;;;1.91;100.00
5872;BME280;2962;51.312;7.378;2022-11-20T13:09:04;96666.47;;;2.04;100.00
5872;BME280;2962;51.312;7.378;2022-11-20T13:11:47;96662.19;;;1.90;100.00
5872;BME280;2962;51.312;7.378;2022-11-20T13:17:32;96646.41;;;1.89;100.00
5872;BME280;2962;51.312;7.378;2022-11-20T13:20:02;96635.97;;;1.87;100.00
5872;BME280;2962;51.312;7.378;2022-11-20T13:22:48;96628.56;;;1.84;100.00
5872;BME280;2962;51.312;7.378;2022-11-20T13:27:57;96623.44;;;1.91;100.00
5872;BME280;2962;51.312;7.378;2022-11-20T13:30:24;96614.72;;;1.94;100.00
5872;BME280;2962;51.312;7.378;2022-11-20T13:32:54;96613.31;;;2.09;100.00
5872;BME280;2962;51.312;7.378;2022-11-20T13:35:31;96609.34;;;1.94;100.00
5872;BME280;2962;51.312;7.378;2022-11-20T13:38:12;96607.13;;;1.97;100.00
5872;BME280;2962;51.312;7.378;2022-11-20T13:40:59;96599.09;;;2.09;100.00
5872;BME280;2962;51.312;7.378;2022-11-20T13:43:46;96591.56;;;2.02;100.00
5872;BME280;2962;51.312;7.378;2022-11-20T13:46:12;96604.66;;;2.04;100.00
5872;BME280;2962;51.312;7.378;2022-11-20T13:48:45;96596.59;;;2.04;100.00
5872;BME280;2962;51.312;7.378;2022-11-20T13:51:25;96603.09;;;2.03;100.00
5872;BME280;2962;51.312;7.378;2022-11-20T13:54:00;96596.06;;;1.98;100.00
5872;BME280;2962;51.312;7.378;2022-11-20T13:56:51;96596.28;;;1.93;100.00
5872;BME280;2962;51.312;7.378;2022-11-20T14:01:50;96592.56;;;1.85;100.00
5872;BME280;2962;51.312;7.378;2022-11-20T14:04:21;96600.94;;;1.84;100.00
5872;BME280;2962;51.312;7.378;2022-11-20T14:06:51;96594.78;;;1.83;100.00
5872;BME280;2962;51.312;7.378;2022-11-20T14:09:31;96582.88;;;1.72;100.00
5872;BME280;2962;51.312;7.378;2022-11-20T14:11:57;96572.94;;;1.73;100.00
5872;BME280;2962;51.312;7.378;2022-11-20T14:14:24;96576.84;;;1.75;100.00
5872;BME280;2962;51.312;7.378;2022-11-20T14:16:53;96565.47;;;1.78;100.00
5872;BME280;2962;51.312;7.378;2022-11-20T14:19:25;96558.19;;;1.79;100.00
5872;BME280;2962;51.312;7.378;2022-11-20T14:21:54;96557.72;;;1.77;100.00
5872;BME280;2962;51.312;7.378;2022-11-20T14:24:21;96556.06;;;1.84;100.00
5872;BME280;2962;51.312;7.378;2022-11-20T14:26:48;96552.13;;;1.69;100.00
5872;BME280;2962;51.312;7.378;2022-11-20T14:29:16;96542.06;;;1.66;100.00
5872;BME280;2962;51.312;7.378;2022-11-20T14:31:42;96550.00;;;1.75;100.00